createdAt,value
2018-02-10T00:00:50.791Z,11.13
2018-02-10T00:03:19.124Z,10.90
2018-02-10T00:05:46.685Z,11.23
2018-02-10T00:08:14.240Z,11.97
2018-02-10T00:10:41.812Z,9.93
2018-02-10T00:13:09.376Z,11.13
2018-02-10T00:15:36.923Z,12.00
2018-02-10T00:18:04.501Z,9.50
2018-02-10T00:20:32.066Z,9.47
2018-02-10T00:22:59.651Z,11.00
2018-02-10T00:25:27.226Z,10.03
2018-02-10T00:27:54.778Z,9.40
2018-02-10T00:30:23.100Z,9.70
2018-02-10T00:32:50.673Z,10.97
2018-02-10T00:35:18.248Z,9.50
2018-02-10T00:37:45.812Z,9.27
2018-02-10T00:40:13.358Z,11.30
2018-02-10T00:42:40.913Z,9.77
2018-02-10T00:45:08.839Z,10.33
2018-02-10T00:47:36.445Z,9.43
2018-02-10T00:50:04.019Z,11.17
2018-02-10T00:52:31.569Z,10.43
2018-02-10T00:54:59.131Z,12.40
2018-02-10T00:57:26.687Z,11.13
2018-02-10T00:59:54.269Z,9.63
2018-02-10T01:02:22.581Z,9.07
2018-02-10T01:04:50.139Z,8.30
2018-02-10T01:07:17.694Z,10.63
2018-02-10T01:09:47.166Z,11.30
2018-02-10T01:12:15.516Z,9.50
2018-02-10T01:14:43.067Z,11.37
2018-02-10T01:17:10.631Z,10.03
2018-02-10T01:19:38.195Z,10.93
2018-02-10T01:22:05.774Z,9.93
2018-02-10T01:24:33.380Z,11.27
2018-02-10T01:27:00.948Z,9.83
2018-02-10T01:29:28.505Z,9.60
2018-02-10T01:31:56.073Z,10.93
2018-02-10T01:34:23.646Z,10.00
2018-02-10T01:36:51.224Z,10.97
2018-02-10T01:39:18.773Z,8.90
2018-02-10T01:41:46.321Z,10.07
2018-02-10T01:44:13.894Z,9.60
2018-02-10T01:46:41.439Z,9.40
2018-02-10T01:49:09.017Z,10.97
2018-02-10T01:51:36.569Z,12.53
2018-02-10T01:54:04.127Z,8.97
2018-02-10T01:56:31.680Z,9.30
2018-02-10T01:58:59.261Z,10.07
2018-02-10T02:01:26.841Z,10.60
2018-02-10T02:03:54.406Z,11.43
2018-02-10T02:06:35.151Z,10.43
2018-02-10T02:09:02.712Z,10.37
2018-02-10T02:11:30.270Z,9.70
2018-02-10T02:13:57.829Z,8.90
2018-02-10T02:16:25.401Z,9.63
2018-02-10T02:18:52.977Z,9.30
2018-02-10T02:21:20.542Z,10.70
2018-02-10T02:23:48.863Z,10.40
2018-02-10T02:26:16.416Z,10.60
2018-02-10T02:28:43.979Z,10.00
2018-02-10T02:31:11.557Z,9.77
2018-02-10T02:33:39.129Z,10.07
2018-02-10T02:36:06.690Z,9.50
2018-02-10T02:38:34.248Z,9.93
2018-02-10T02:41:01.820Z,12.00
2018-02-10T02:43:29.406Z,8.80
2018-02-10T02:45:57.753Z,10.90
2018-02-10T02:48:25.310Z,10.53
2018-02-10T02:50:52.871Z,8.70
2018-02-10T02:53:20.437Z,9.10
2018-02-10T02:55:48.017Z,9.30
2018-02-10T02:58:15.583Z,9.30
2018-02-10T03:00:43.142Z,9.63
2018-02-10T03:03:11.489Z,10.53
2018-02-10T03:05:39.049Z,11.57
2018-02-10T03:08:06.631Z,9.60
2018-02-10T03:10:34.196Z,9.73
2018-02-10T03:13:01.757Z,10.20
2018-02-10T03:15:30.090Z,10.90
2018-02-10T03:17:57.651Z,9.17
2018-02-10T03:20:25.199Z,9.60
2018-02-10T03:22:52.765Z,10.10
2018-02-10T03:25:20.356Z,9.53
2018-02-10T03:27:47.922Z,9.30
2018-02-10T03:30:15.485Z,7.80
2018-02-10T03:32:43.064Z,9.10
2018-02-10T03:35:10.630Z,10.03
2018-02-10T03:37:38.998Z,10.27
2018-02-10T03:40:06.565Z,9.13
2018-02-10T03:42:34.891Z,11.90
2018-02-10T03:45:02.438Z,9.73
2018-02-10T03:47:30.014Z,9.33
2018-02-10T03:49:57.571Z,11.50
2018-02-10T03:52:25.150Z,10.33
2018-02-10T03:54:52.709Z,10.83
2018-02-10T03:57:20.276Z,10.30
2018-02-10T03:59:47.843Z,10.17
2018-02-10T04:02:15.400Z,8.87
2018-02-10T04:04:42.974Z,10.13
2018-02-10T04:07:10.542Z,10.20
2018-02-10T04:09:38.872Z,10.83
2018-02-10T04:12:06.431Z,8.37
2018-02-10T04:14:34.007Z,10.13
2018-02-10T04:17:01.649Z,10.80
2018-02-10T04:19:29.960Z,9.13
2018-02-10T04:21:57.528Z,9.43
2018-02-10T04:24:25.076Z,9.97
2018-02-10T04:26:52.637Z,9.20
2018-02-10T04:29:20.241Z,8.73
2018-02-10T04:31:48.571Z,9.50
2018-02-10T04:34:26.254Z,10.10
2018-02-10T04:36:53.812Z,8.40
2018-02-10T04:39:21.384Z,13.37
2018-02-10T04:41:48.946Z,9.20
2018-02-10T04:44:16.519Z,10.50
2018-02-10T04:46:44.114Z,9.70
2018-02-10T04:49:12.447Z,8.60
2018-02-10T04:51:40.041Z,9.13
2018-02-10T04:54:08.372Z,9.90
2018-02-10T04:56:35.927Z,8.03
2018-02-10T04:59:03.517Z,10.10
2018-02-10T05:01:31.090Z,10.87
2018-02-10T05:03:58.657Z,9.40
2018-02-10T05:06:26.221Z,9.73
2018-02-10T05:08:54.555Z,9.60
2018-02-10T05:11:22.105Z,10.20
2018-02-10T05:13:50.432Z,10.67
2018-02-10T05:16:18.028Z,8.50
2018-02-10T05:18:45.585Z,9.17
2018-02-10T05:21:13.144Z,9.40
2018-02-10T05:23:40.703Z,10.07
2018-02-10T05:26:08.267Z,9.90
2018-02-10T05:28:35.848Z,10.33
2018-02-10T05:31:03.424Z,9.10
2018-02-10T05:33:30.977Z,10.67
2018-02-10T05:35:58.533Z,9.00
2018-02-10T05:38:26.087Z,10.20
2018-02-10T05:40:53.654Z,9.57
2018-02-10T05:43:21.199Z,8.47
2018-02-10T05:45:48.839Z,8.43
2018-02-10T05:48:16.403Z,9.10
2018-02-10T05:50:43.989Z,9.10
2018-02-10T05:53:11.549Z,9.23
2018-02-10T05:55:39.106Z,10.23
2018-02-10T05:58:06.686Z,8.73
2018-02-10T06:00:34.253Z,12.20
2018-02-10T06:03:01.797Z,9.37
2018-02-10T06:05:29.363Z,8.57
2018-02-10T06:07:56.927Z,9.27
2018-02-10T06:10:24.521Z,8.73
2018-02-10T06:12:52.088Z,9.47
2018-02-10T06:15:19.662Z,9.77
2018-02-10T06:17:47.986Z,8.13
2018-02-10T06:20:15.549Z,9.47
2018-02-10T06:22:43.134Z,9.60
2018-02-10T06:25:10.701Z,8.70
2018-02-10T06:27:38.308Z,10.70
2018-02-10T06:30:05.858Z,8.83
2018-02-10T06:32:33.422Z,10.17
2018-02-10T06:35:01.034Z,9.63
2018-02-10T06:37:28.598Z,9.43
2018-02-10T06:39:56.158Z,8.60
2018-02-10T06:42:24.501Z,9.07
2018-02-10T06:44:52.075Z,9.17
2018-02-10T06:47:19.650Z,8.73
2018-02-10T06:49:47.223Z,9.10
2018-02-10T06:52:26.005Z,8.10
2018-02-10T06:54:53.565Z,8.60
2018-02-10T06:57:21.134Z,8.83
2018-02-10T06:59:48.697Z,8.80
2018-02-10T07:02:16.258Z,9.30
2018-02-10T07:04:43.880Z,10.93
2018-02-10T07:07:11.461Z,10.57
2018-02-10T07:09:39.036Z,8.10
2018-02-10T07:12:06.678Z,8.60
2018-02-10T07:14:34.231Z,8.30
2018-02-10T07:17:01.822Z,7.90
2018-02-10T07:19:29.387Z,10.10
2018-02-10T07:21:56.955Z,8.87
2018-02-10T07:24:31.635Z,7.53
2018-02-10T07:26:59.200Z,7.87
2018-02-10T07:29:26.742Z,9.23
2018-02-10T07:31:54.319Z,8.37
2018-02-10T07:34:21.928Z,8.83
2018-02-10T07:36:49.498Z,7.70
2018-02-10T07:39:17.063Z,9.17
2018-02-10T07:41:44.648Z,10.63
2018-02-10T07:44:12.209Z,8.80
2018-02-10T07:46:43.941Z,8.07
2018-02-10T07:49:11.507Z,8.33
2018-02-10T07:51:39.848Z,9.67
2018-02-10T07:54:07.426Z,11.13
2018-02-10T07:56:34.968Z,9.37
2018-02-10T07:59:02.536Z,9.17
2018-02-10T08:01:30.063Z,8.77
2018-02-10T08:03:57.606Z,9.53
2018-02-10T08:06:25.155Z,9.03
2018-02-10T08:08:53.468Z,11.47
2018-02-10T08:11:21.037Z,9.07
2018-02-10T08:13:48.596Z,9.17
2018-02-10T08:16:16.164Z,8.80
2018-02-10T08:18:43.714Z,10.73
2018-02-10T08:21:11.264Z,8.60
2018-02-10T08:23:38.856Z,11.80
2018-02-10T08:26:06.394Z,7.73
2018-02-10T08:28:33.948Z,12.17
2018-02-10T08:31:02.259Z,10.50
2018-02-10T08:33:29.818Z,10.13
2018-02-10T08:35:57.363Z,8.57
2018-02-10T08:38:24.944Z,12.57
2018-02-10T08:40:52.526Z,11.60
2018-02-10T08:43:22.041Z,16.53
2018-02-10T08:45:52.214Z,15.37
2018-02-10T08:48:19.813Z,8.67
2018-02-10T08:50:48.922Z,11.87
2018-02-10T08:53:16.486Z,9.10
2018-02-10T08:55:44.078Z,11.47
2018-02-10T08:58:13.582Z,13.30
2018-02-10T09:00:42.157Z,15.60
2018-02-10T09:03:09.755Z,12.53
2018-02-10T09:08:32.039Z,15.43
2018-02-10T09:11:00.370Z,12.83
2018-02-10T09:13:31.846Z,15.80
2018-02-10T09:15:59.400Z,14.37
2018-02-10T09:18:28.987Z,15.07
2018-02-10T09:20:56.560Z,18.03
2018-02-10T09:23:24.156Z,15.20
2018-02-10T09:25:52.508Z,14.17
2018-02-10T09:28:30.470Z,15.47
2018-02-10T09:30:58.042Z,13.10
2018-02-10T09:33:25.590Z,18.10
2018-02-10T09:35:53.142Z,13.10
2018-02-10T09:38:20.687Z,16.20
2018-02-10T09:40:48.984Z,15.70
2018-02-10T09:43:16.575Z,15.60
2018-02-10T09:45:44.135Z,18.70
2018-02-10T09:48:11.708Z,15.87
2018-02-10T09:50:39.282Z,14.73
2018-02-10T09:53:06.834Z,14.70
2018-02-10T09:55:34.392Z,14.33
2018-02-10T09:58:01.942Z,12.50
2018-02-10T10:00:29.512Z,16.63
2018-02-10T10:02:57.070Z,14.60
2018-02-10T10:05:24.662Z,10.63
2018-02-10T10:07:52.968Z,14.30
2018-02-10T10:10:20.519Z,11.40
2018-02-10T10:12:48.106Z,9.20
2018-02-10T10:15:15.646Z,12.67
2018-02-10T10:17:43.217Z,12.27
2018-02-10T10:20:10.747Z,13.23
2018-02-10T10:22:39.052Z,12.97
2018-02-10T10:25:06.591Z,11.60
2018-02-10T10:27:34.130Z,13.73
2018-02-10T10:30:02.459Z,9.00
2018-02-10T10:32:38.058Z,9.20
2018-02-10T10:35:06.434Z,11.97
2018-02-10T10:37:33.958Z,10.67
2018-02-10T10:40:01.529Z,14.07
2018-02-10T10:42:29.067Z,9.70
2018-02-10T10:44:56.610Z,12.73
2018-02-10T10:47:24.176Z,14.13
2018-02-10T10:49:51.710Z,15.37
2018-02-10T10:52:19.256Z,11.77
2018-02-10T10:54:46.786Z,12.37
2018-02-10T10:57:14.325Z,12.73
2018-02-10T10:59:43.846Z,10.07
2018-02-10T11:02:11.384Z,9.77
2018-02-10T11:04:38.918Z,11.50
2018-02-10T11:07:07.231Z,11.30
2018-02-10T11:09:34.760Z,13.53
2018-02-10T11:12:03.093Z,11.50
2018-02-10T11:14:30.643Z,12.47
2018-02-10T11:16:58.217Z,14.57
2018-02-10T11:19:25.758Z,14.13
2018-02-10T11:21:53.295Z,13.20
2018-02-10T11:24:21.624Z,11.30
2018-02-10T11:26:49.659Z,11.53
2018-02-10T11:29:17.993Z,10.77
2018-02-10T11:34:47.827Z,13.33
2018-02-10T11:37:16.233Z,9.33
2018-02-10T11:39:43.759Z,11.70
2018-02-10T11:42:12.057Z,9.97
2018-02-10T11:44:39.586Z,16.90
2018-02-10T11:47:07.115Z,9.43
2018-02-10T11:49:34.675Z,11.30
2018-02-10T11:52:02.222Z,12.90
2018-02-10T11:54:29.774Z,11.87
2018-02-10T11:56:57.358Z,12.20
2018-02-10T11:59:25.982Z,10.90
2018-02-10T12:01:53.577Z,11.37
2018-02-10T12:04:21.116Z,9.27
2018-02-10T12:06:48.646Z,13.60
2018-02-10T12:09:16.199Z,10.93
2018-02-10T12:11:43.742Z,10.40
2018-02-10T12:14:11.270Z,9.97
2018-02-10T12:16:38.851Z,12.23
2018-02-10T12:19:07.327Z,9.17
2018-02-10T12:21:34.884Z,8.90
2018-02-10T12:24:02.418Z,9.90
2018-02-10T12:26:29.953Z,8.50
2018-02-10T12:28:58.277Z,11.20
2018-02-10T12:31:25.808Z,10.80
2018-02-10T12:33:54.108Z,13.57
2018-02-10T12:36:21.650Z,15.90
2018-02-10T12:38:49.955Z,22.67
2018-02-10T12:41:17.515Z,25.53
2018-02-10T12:43:45.056Z,24.90
2018-02-10T12:46:12.592Z,24.27
2018-02-10T12:48:52.758Z,31.87
2018-02-10T12:51:21.066Z,25.20
2018-02-10T12:53:48.628Z,22.00
2018-02-10T12:56:16.195Z,27.43
2018-02-10T12:58:43.762Z,24.20
2018-02-10T13:01:11.322Z,28.20
2018-02-10T13:03:38.862Z,24.10
2018-02-10T13:06:06.413Z,23.57
2018-02-10T13:08:34.886Z,23.80
2018-02-10T13:11:02.490Z,28.47
2018-02-10T13:13:30.027Z,22.33
2018-02-10T13:15:57.609Z,22.47
2018-02-10T13:18:25.158Z,20.37
2018-02-10T13:20:52.698Z,24.17
2018-02-10T13:23:20.231Z,25.77
2018-02-10T13:25:49.576Z,22.77
2018-02-10T13:28:17.145Z,23.50
2018-02-10T13:30:44.682Z,26.00
2018-02-10T13:33:12.221Z,21.00
2018-02-10T13:35:40.522Z,20.13
2018-02-10T13:38:09.122Z,23.10
2018-02-10T13:40:36.636Z,24.00
2018-02-10T13:43:06.888Z,20.10
2018-02-10T13:45:35.855Z,19.50
2018-02-10T13:48:03.417Z,21.60
2018-02-10T13:50:30.959Z,23.47
2018-02-10T13:52:59.266Z,21.10
2018-02-10T13:55:26.854Z,17.00
2018-02-10T13:57:54.397Z,25.50
2018-02-10T14:00:21.952Z,23.53
2018-02-10T14:02:49.483Z,19.03
2018-02-10T14:05:17.782Z,16.53
2018-02-10T14:07:46.256Z,19.80
2018-02-10T14:10:14.564Z,20.40
2018-02-10T14:12:42.098Z,18.07
2018-02-10T14:15:10.751Z,18.07
2018-02-10T14:17:38.302Z,20.67
2018-02-10T14:20:05.838Z,31.60
2018-02-10T14:22:33.370Z,15.90
2018-02-10T14:25:00.899Z,15.87
2018-02-10T14:27:30.226Z,15.07
2018-02-10T14:29:57.945Z,19.37
2018-02-10T14:32:26.502Z,14.37
2018-02-10T14:34:54.049Z,15.00
2018-02-10T14:37:21.571Z,15.23
2018-02-10T14:39:49.898Z,20.10
2018-02-10T14:42:17.422Z,19.83
2018-02-10T14:44:45.713Z,18.63
2018-02-10T14:47:15.231Z,15.93
2018-02-10T14:49:42.771Z,21.50
2018-02-10T14:52:10.350Z,16.43
2018-02-10T14:54:37.902Z,15.70
2018-02-10T14:57:05.457Z,23.30
2018-02-10T14:59:32.990Z,15.50
2018-02-10T15:02:01.305Z,19.40
2018-02-10T15:04:28.848Z,14.10
2018-02-10T15:06:56.394Z,15.67
2018-02-10T15:09:24.687Z,14.77
2018-02-10T15:11:52.218Z,15.50
2018-02-10T15:14:19.811Z,16.20
2018-02-10T15:16:47.362Z,13.47
2018-02-10T15:19:14.917Z,13.47
2018-02-10T15:21:43.236Z,12.50
2018-02-10T15:24:10.800Z,12.83
2018-02-10T15:26:38.397Z,13.97
2018-02-10T15:29:05.932Z,8.97
2018-02-10T15:31:46.002Z,11.90
2018-02-10T15:34:25.458Z,13.70
2018-02-10T15:36:53.750Z,12.33
2018-02-10T15:39:22.065Z,13.20
2018-02-10T15:41:49.611Z,16.13
2018-02-10T15:44:19.061Z,12.97
2018-02-10T15:46:46.606Z,12.63
2018-02-10T15:49:14.139Z,13.07
2018-02-10T15:51:41.698Z,10.23
2018-02-10T15:54:09.224Z,14.30
2018-02-10T15:56:37.522Z,10.10
2018-02-10T15:59:05.270Z,9.73
2018-02-10T16:01:33.550Z,13.40
2018-02-10T16:04:01.866Z,10.90
2018-02-10T16:06:29.400Z,10.07
2018-02-10T16:08:56.951Z,8.97
2018-02-10T16:11:24.519Z,12.10
2018-02-10T16:13:52.076Z,11.63
2018-02-10T16:16:20.559Z,11.13
2018-02-10T16:18:48.117Z,9.97
2018-02-10T16:21:15.747Z,10.50
2018-02-10T16:23:43.284Z,10.30
2018-02-10T16:26:10.813Z,11.77
2018-02-10T16:28:38.342Z,7.97
2018-02-10T16:31:06.680Z,9.30
2018-02-10T16:33:34.252Z,9.57
2018-02-10T16:36:01.792Z,10.23
2018-02-10T16:38:29.361Z,9.97
2018-02-10T16:40:56.891Z,9.20
2018-02-10T16:43:24.422Z,9.73
2018-02-10T16:45:52.713Z,6.80
2018-02-10T16:48:20.258Z,8.83
2018-02-10T16:50:49.187Z,6.90
2018-02-10T16:53:16.720Z,11.07
2018-02-10T16:55:44.261Z,9.60
2018-02-10T16:58:12.558Z,9.93
2018-02-10T17:00:40.096Z,10.30
2018-02-10T17:03:08.408Z,9.67
2018-02-10T17:05:35.938Z,9.10
2018-02-10T17:08:04.267Z,8.27
2018-02-10T17:10:31.807Z,10.50
2018-02-10T17:12:59.344Z,5.33
2018-02-10T17:15:27.648Z,7.90
2018-02-10T17:17:56.139Z,8.27
2018-02-10T17:20:23.707Z,6.53
2018-02-10T17:22:51.246Z,8.73
2018-02-10T17:25:18.795Z,5.97
2018-02-10T17:27:46.317Z,7.30
2018-02-10T17:30:13.873Z,7.20
2018-02-10T17:32:41.408Z,10.03
2018-02-10T17:35:13.263Z,8.03
2018-02-10T17:37:40.807Z,5.47
2018-02-10T17:40:08.345Z,6.00
2018-02-10T17:42:36.651Z,10.43
2018-02-10T17:45:04.181Z,8.53
2018-02-10T17:47:32.511Z,8.70
2018-02-10T17:50:00.054Z,7.33
2018-02-10T17:52:27.595Z,7.50
2018-02-10T17:54:55.137Z,8.73
2018-02-10T17:57:23.459Z,8.40
2018-02-10T17:59:51.015Z,6.73
2018-02-10T18:02:18.547Z,8.63
2018-02-10T18:04:46.134Z,6.30
2018-02-10T18:07:13.672Z,5.93
2018-02-10T18:09:41.200Z,5.90
2018-02-10T18:12:09.550Z,6.77
2018-02-10T18:14:37.095Z,5.53
2018-02-10T18:17:04.628Z,5.93
2018-02-10T18:19:32.159Z,6.17
2018-02-10T18:21:59.724Z,5.67
2018-02-10T18:24:28.048Z,6.67
2018-02-10T18:26:55.582Z,5.87
2018-02-10T18:29:23.123Z,5.90
2018-02-10T18:31:50.706Z,6.30
2018-02-10T18:34:18.250Z,5.27
2018-02-10T18:36:45.815Z,5.43
2018-02-10T18:39:13.351Z,6.20
2018-02-10T18:41:41.653Z,8.77
2018-02-10T18:44:09.185Z,7.90
2018-02-10T18:46:36.733Z,7.10
2018-02-10T18:49:04.291Z,5.70
2018-02-10T18:51:31.828Z,11.20
2018-02-10T18:53:59.417Z,5.80
2018-02-10T18:56:26.947Z,5.77
2018-02-10T18:58:54.502Z,8.50
2018-02-10T19:01:26.024Z,8.73
2018-02-10T19:03:54.342Z,6.57
2018-02-10T19:06:21.870Z,5.27
2018-02-10T19:08:49.457Z,6.63
2018-02-10T19:11:16.970Z,6.07
2018-02-10T19:13:45.271Z,6.00
2018-02-10T19:16:12.837Z,7.40
2018-02-10T19:18:40.449Z,4.30
2018-02-10T19:21:08.014Z,4.53
2018-02-10T19:23:36.336Z,6.90
2018-02-10T19:26:03.871Z,5.10
2018-02-10T19:28:32.187Z,6.97
2018-02-10T19:30:59.721Z,8.43
2018-02-10T19:33:27.306Z,5.60
2018-02-10T19:35:54.838Z,4.83
2018-02-10T19:38:22.416Z,10.57
2018-02-10T19:40:49.973Z,9.00
2018-02-10T19:43:17.512Z,6.00
2018-02-10T19:45:45.812Z,6.07
2018-02-10T19:48:13.346Z,12.50
2018-02-10T19:50:41.650Z,4.30
2018-02-10T19:53:09.194Z,4.20
2018-02-10T19:55:36.752Z,5.10
2018-02-10T19:58:05.056Z,4.77
2018-02-10T20:00:32.583Z,6.73
2018-02-10T20:03:00.903Z,8.03
2018-02-10T20:05:28.449Z,4.17
2018-02-10T20:07:56.023Z,3.93
2018-02-10T20:10:23.586Z,10.03
2018-02-10T20:12:51.146Z,4.80
2018-02-10T20:15:19.441Z,5.87
2018-02-10T20:17:46.968Z,4.07
2018-02-10T20:20:14.505Z,5.60
2018-02-10T20:22:42.082Z,4.40
2018-02-10T20:25:09.674Z,4.33
2018-02-10T20:27:38.212Z,4.60
2018-02-10T20:30:05.742Z,3.87
2018-02-10T20:32:34.155Z,4.40
2018-02-10T20:35:01.712Z,4.43
2018-02-10T20:37:29.250Z,4.00
2018-02-10T20:39:57.574Z,5.20
2018-02-10T20:42:25.107Z,4.27
2018-02-10T20:44:53.434Z,4.20
2018-02-10T20:47:20.966Z,3.70
2018-02-10T20:49:48.506Z,5.50
2018-02-10T20:52:18.498Z,4.77
2018-02-10T20:54:46.030Z,3.03
2018-02-10T20:57:13.584Z,4.80
2018-02-10T20:59:43.051Z,7.00
2018-02-10T21:02:10.600Z,4.80
2018-02-10T21:04:38.906Z,4.03
2018-02-10T21:07:06.445Z,6.00
2018-02-10T21:09:35.792Z,7.23
2018-02-10T21:12:04.335Z,7.17
2018-02-10T21:14:31.900Z,5.07
2018-02-10T21:16:59.424Z,6.03
2018-02-10T21:19:26.962Z,6.60
2018-02-10T21:21:55.515Z,6.30
2018-02-10T21:24:27.165Z,9.67
2018-02-10T21:26:54.710Z,5.33
2018-02-10T21:29:22.993Z,8.20
2018-02-10T21:31:51.466Z,6.00
2018-02-10T21:34:19.796Z,5.40
2018-02-10T21:36:47.326Z,6.43
2018-02-10T21:39:14.918Z,3.43
2018-02-10T21:41:44.192Z,10.20
2018-02-10T21:44:11.729Z,5.03
2018-02-10T21:46:39.263Z,3.80
2018-02-10T21:49:07.615Z,6.10
2018-02-10T21:51:35.151Z,6.70
2018-02-10T21:54:02.683Z,5.27
2018-02-10T21:56:30.242Z,5.73
2018-02-10T21:58:58.540Z,5.33
2018-02-10T22:01:26.075Z,3.53
2018-02-10T22:03:54.402Z,2.80
2018-02-10T22:06:21.938Z,5.63
2018-02-10T22:08:55.339Z,4.40
2018-02-10T22:11:22.880Z,4.70
2018-02-10T22:13:50.436Z,5.07
2018-02-10T22:16:17.974Z,7.70
2018-02-10T22:18:46.283Z,5.90
2018-02-10T22:21:13.843Z,5.30
2018-02-10T22:23:41.362Z,3.80
2018-02-10T22:26:08.930Z,3.80
2018-02-10T22:28:37.229Z,5.30
2018-02-10T22:31:05.530Z,3.73
2018-02-10T22:33:36.238Z,4.27
2018-02-10T22:36:04.528Z,3.50
2018-02-10T22:38:32.087Z,4.20
2018-02-10T22:40:59.621Z,8.23
2018-02-10T22:43:27.918Z,4.10
2018-02-10T22:45:56.218Z,3.10
2018-02-10T22:48:23.756Z,2.93
2018-02-10T22:50:51.302Z,5.23
2018-02-10T22:53:19.592Z,4.63
2018-02-10T22:55:47.154Z,3.63
2018-02-10T22:58:14.694Z,2.73
2018-02-10T23:00:42.988Z,4.07
2018-02-10T23:03:10.514Z,3.53
2018-02-10T23:05:38.052Z,3.00
2018-02-10T23:08:05.606Z,4.30
2018-02-10T23:10:33.139Z,3.47
2018-02-10T23:13:00.710Z,4.63
2018-02-10T23:15:28.235Z,3.43
2018-02-10T23:17:56.539Z,3.63
2018-02-10T23:20:24.067Z,4.80
2018-02-10T23:22:52.362Z,4.00
2018-02-10T23:25:19.918Z,3.07
2018-02-10T23:27:48.223Z,2.57
2018-02-10T23:30:15.759Z,5.23
2018-02-10T23:32:43.295Z,3.97
2018-02-10T23:35:11.602Z,4.40
2018-02-10T23:37:39.164Z,3.37
2018-02-10T23:40:06.691Z,3.20
2018-02-10T23:42:34.995Z,2.60
2018-02-10T23:45:02.530Z,3.50
2018-02-10T23:47:30.837Z,2.97
2018-02-10T23:49:58.369Z,3.50
2018-02-10T23:52:26.671Z,2.80
2018-02-10T23:54:54.255Z,2.53
2018-02-10T23:57:21.812Z,4.50
2018-02-10T23:59:49.353Z,2.90
